Time;durP1;ratioP1;P1;durP2;ratioP2;P2;SDS_P1;SDS_P2;PMS_P1;PMS_P2;Temp;Humidity;BMP_temperature;BMP_pressure;BME280_temperature;BME280_humidity;BME280_pressure;Samples;Min_cycle;Max_cycle;Signal;HPM_P1;HPM_P2
2023/06/15 00:01:14;;;;;;;11.35;9.35;;;24.60;66.20;;;;;;4628261;56;21056;-36
2023/06/15 00:06:15;;;;;;;9.52;8.60;;;24.50;66.20;;;;;;4615448;60;21546;-37
2023/06/15 00:11:16;;;;;;;9.98;8.98;;;24.60;66.20;;;;;;4659042;56;21108;-35
2023/06/15 00:16:18;;;;;;;9.65;8.63;;;24.50;66.10;;;;;;4614361;58;22014;-39
2023/06/15 00:21:19;;;;;;;10.75;8.63;;;24.60;66.20;;;;;;4726681;56;21488;-38
2023/06/15 00:26:20;;;;;;;9.68;8.65;;;24.60;66.20;;;;;;4794219;56;21045;-40
2023/06/15 00:31:22;;;;;;;9.63;8.60;;;24.50;66.10;;;;;;4803967;56;21567;-39
2023/06/15 00:36:23;;;;;;;10.55;8.82;;;24.50;66.20;;;;;;4615292;60;21500;-38
2023/06/15 00:41:23;;;;;;;9.90;8.27;;;24.50;66.10;;;;;;4717959;56;21046;-40
2023/06/15 00:46:24;;;;;;;9.38;8.45;;;24.50;66.10;;;;;;4726056;56;21080;-37
2023/06/15 00:51:26;;;;;;;10.27;9.15;;;24.50;66.10;;;;;;4631279;56;21609;-38
2023/06/15 00:56:30;;;;;;;9.57;8.63;;;24.50;66.10;;;;;;4628421;56;21089;-38
2023/06/15 01:01:31;;;;;;;11.02;8.57;;;24.50;66.00;;;;;;4628416;56;21045;-40
2023/06/15 01:06:34;;;;;;;9.65;8.63;;;24.50;66.00;;;;;;4618240;56;21100;-41
2023/06/15 01:11:36;;;;;;;9.25;8.27;;;24.50;66.00;;;;;;4615342;60;21507;-39
2023/06/15 01:16:52;;;;;;;9.65;8.65;;;24.50;66.00;;;;;;4640633;56;21165;-38
2023/06/15 01:21:53;;;;;;;9.90;7.90;;;24.50;66.00;;;;;;4821055;56;21483;-38
2023/06/15 01:26:57;;;;;;;9.20;8.30;;;24.50;66.00;;;;;;4615510;56;21005;-39
2023/06/15 01:31:58;;;;;;;9.10;8.18;;;24.50;66.00;;;;;;4659890;56;21579;-37
2023/06/15 01:36:59;;;;;;;9.07;8.13;;;24.50;66.50;;;;;;4675499;56;21398;-40
2023/06/15 01:42:01;;;;;;;8.68;7.78;;;24.50;65.90;;;;;;4795811;56;21492;-39
2023/06/15 01:47:01;;;;;;;9.02;8.13;;;24.50;65.90;;;;;;4642386;56;21025;-40
2023/06/15 01:52:03;;;;;;;8.93;7.82;;;24.50;65.90;;;;;;4614729;60;21571;-41
2023/06/15 01:57:05;;;;;;;8.63;7.65;;;24.50;65.90;;;;;;4615761;56;21029;-39
2023/06/15 02:02:06;;;;;;;8.98;8.07;;;24.50;65.90;;;;;;4687699;56;21005;-39
2023/06/15 02:07:08;;;;;;;8.43;7.53;;;24.50;65.80;;;;;;4711807;56;21543;-38
2023/06/15 02:12:10;;;;;;;8.88;7.95;;;24.50;65.90;;;;;;4614139;60;21540;-43
2023/06/15 02:17:11;;;;;;;8.40;7.60;;;24.50;65.80;;;;;;4615451;60;20993;-38
2023/06/15 02:22:13;;;;;;;9.77;8.32;;;24.50;65.80;;;;;;4623017;56;21591;-38
2023/06/15 02:27:14;;;;;;;8.88;8.07;;;24.50;65.80;;;;;;4646823;56;21093;-36
2023/06/15 02:32:49;;;;;;;8.27;7.47;;;24.40;65.80;;;;;;4675886;56;21545;-37
2023/06/15 02:37:49;;;;;;;9.30;8.15;;;24.50;65.80;;;;;;4624897;56;21965;-39
2023/06/15 02:42:50;;;;;;;9.25;8.23;;;24.50;65.80;;;;;;4632109;56;21419;-39
2023/06/15 02:47:51;;;;;;;8.98;8.00;;;24.50;65.80;;;;;;4615406;60;21025;-36
2023/06/15 02:52:53;;;;;;;8.75;7.85;;;24.50;65.80;;;;;;4631821;56;21148;-38
2023/06/15 02:57:54;;;;;;;9.50;7.97;;;24.50;65.90;;;;;;4753476;56;22228;-38
2023/06/15 03:02:55;;;;;;;8.82;7.93;;;24.50;65.80;;;;;;4720739;56;21049;-37
2023/06/15 03:07:56;;;;;;;8.35;7.45;;;24.40;65.80;;;;;;4681269;56;21879;-38
2023/06/15 03:12:57;;;;;;;7.75;7.05;;;24.50;65.80;;;;;;4616511;56;21438;-39
2023/06/15 03:17:58;;;;;;;8.90;7.97;;;24.50;65.80;;;;;;4690692;56;21583;-36
2023/06/15 03:23:00;;;;;;;7.80;7.10;;;24.50;66.20;;;;;;4643860;56;21021;-35
2023/06/15 03:28:01;;;;;;;8.73;7.55;;;24.40;65.80;;;;;;4711688;56;21453;-37
2023/06/15 03:33:02;;;;;;;7.78;7.07;;;24.50;65.80;;;;;;4653681;56;21622;-38
2023/06/15 03:38:03;;;;;;;8.05;7.25;;;24.50;65.80;;;;;;4703250;56;21477;-38
2023/06/15 03:43:04;;;;;;;9.02;7.53;;;24.50;66.50;;;;;;4679848;56;21511;-37
2023/06/15 03:48:05;;;;;;;9.88;7.87;;;24.50;65.80;;;;;;4615490;60;21654;-39
2023/06/15 03:53:06;;;;;;;8.00;7.12;;;24.50;65.90;;;;;;4848142;56;21910;-38
2023/06/15 03:58:07;;;;;;;8.60;7.50;;;24.40;65.80;;;;;;4752356;56;21049;-39
2023/06/15 04:03:09;;;;;;;7.47;6.80;;;24.40;65.80;;;;;;4624264;56;21334;-39
2023/06/15 04:08:09;;;;;;;7.95;6.87;;;24.40;65.80;;;;;;4630959;56;21511;-41
2023/06/15 04:13:10;;;;;;;7.53;6.82;;;24.40;65.80;;;;;;4738617;56;21037;-40
2023/06/15 04:18:11;;;;;;;8.05;7.25;;;24.40;65.80;;;;;;4623883;56;21140;-42
2023/06/15 04:23:12;;;;;;;7.80;6.97;;;24.40;65.80;;;;;;4615464;60;21366;-40
2023/06/15 04:28:13;;;;;;;8.05;7.22;;;24.50;65.90;;;;;;4615339;60;21469;-37
2023/06/15 04:33:14;;;;;;;7.70;6.95;;;24.50;65.80;;;;;;4614915;60;21136;-40
2023/06/15 04:38:15;;;;;;;8.48;7.40;;;24.40;65.80;;;;;;4640478;56;22190;-38
2023/06/15 04:43:16;;;;;;;8.10;7.30;;;24.40;65.80;;;;;;4614885;60;21962;-37
2023/06/15 04:48:19;;;;;;;8.63;7.12;;;24.40;65.80;;;;;;4636303;56;21041;-40
2023/06/15 04:53:20;;;;;;;7.40;6.65;;;24.40;65.80;;;;;;4685079;56;21512;-37
2023/06/15 04:58:20;;;;;;;10.27;7.35;;;24.40;65.80;;;;;;4678175;56;21061;-38
2023/06/15 05:03:21;;;;;;;7.50;6.65;;;24.40;65.80;;;;;;4625110;56;21025;-38
2023/06/15 05:08:23;;;;;;;7.20;6.47;;;24.40;65.80;;;;;;4661338;56;21113;-37
2023/06/15 05:13:23;;;;;;;8.73;6.90;;;24.40;65.80;;;;;;4700471;56;21586;-38
2023/06/15 05:18:25;;;;;;;7.60;6.80;;;24.40;65.70;;;;;;4616018;56;21188;-36
2023/06/15 05:23:26;;;;;;;7.30;6.60;;;24.40;65.70;;;;;;4669747;56;21629;-37
2023/06/15 05:28:27;;;;;;;7.53;6.75;;;24.40;65.80;;;;;;4615285;60;21510;-38
2023/06/15 05:33:28;;;;;;;8.45;6.82;;;24.40;65.80;;;;;;4622520;56;21021;-34
2023/06/15 05:38:29;;;;;;;7.95;6.93;;;24.40;65.70;;;;;;4630631;56;21041;-41
2023/06/15 05:43:30;;;;;;;7.72;6.97;;;24.40;65.80;;;;;;4719570;56;21583;-39
2023/06/15 05:48:31;;;;;;;8.10;6.85;;;24.40;65.80;;;;;;4614904;60;21096;-36
2023/06/15 05:53:32;;;;;;;7.70;7.00;;;24.40;66.10;;;;;;4629588;56;21108;-39
2023/06/15 05:58:33;;;;;;;7.53;6.82;;;24.40;65.70;;;;;;4655184;56;21107;-40
2023/06/15 06:03:35;;;;;;;8.05;7.30;;;24.40;65.70;;;;;;4645146;56;21077;-39
2023/06/15 06:08:36;;;;;;;8.38;7.47;;;24.40;65.60;;;;;;4615794;60;21575;-38
2023/06/15 06:13:37;;;;;;;7.78;6.97;;;24.40;65.60;;;;;;4702911;56;21029;-37
2023/06/15 06:18:38;;;;;;;8.25;7.45;;;24.40;65.60;;;;;;4614065;60;21021;-34
2023/06/15 06:23:39;;;;;;;9.65;7.60;;;24.40;65.60;;;;;;4637448;56;21105;-36
2023/06/15 06:28:40;;;;;;;9.10;7.68;;;24.40;65.60;;;;;;4617673;56;21567;-37
2023/06/15 06:33:41;;;;;;;8.18;7.20;;;24.40;65.60;;;;;;4635139;56;21102;-36
2023/06/15 06:38:42;;;;;;;7.95;7.15;;;24.40;65.60;;;;;;4616851;56;21615;-38
2023/06/15 06:43:42;;;;;;;8.43;7.57;;;24.40;65.60;;;;;;4653797;56;21089;-39
2023/06/15 06:48:43;;;;;;;9.40;7.15;;;24.40;65.50;;;;;;4653890;56;21109;-37
2023/06/15 06:53:44;;;;;;;9.40;7.40;;;24.40;66.20;;;;;;4636314;56;21670;-40
2023/06/15 06:58:45;;;;;;;9.50;8.02;;;24.40;65.50;;;;;;4631348;56;21497;-39
2023/06/15 07:03:46;;;;;;;8.95;8.05;;;24.40;66.20;;;;;;4633059;56;21347;-37
2023/06/15 07:08:47;;;;;;;11.57;8.52;;;24.40;65.50;;;;;;4671685;56;21331;-38
2023/06/15 07:13:48;;;;;;;9.40;8.38;;;24.40;65.60;;;;;;4614279;60;21105;-39
2023/06/15 07:18:48;;;;;;;9.77;8.43;;;24.40;65.50;;;;;;4615567;60;21069;-39
2023/06/15 07:23:49;;;;;;;9.15;8.18;;;24.40;65.50;;;;;;4638220;56;21094;-38
2023/06/15 07:28:50;;;;;;;9.45;8.32;;;24.40;65.50;;;;;;4642249;56;21037;-36
2023/06/15 07:33:53;;;;;;;10.35;8.73;;;24.40;65.60;;;;;;4618590;56;21566;-38
2023/06/15 07:38:54;;;;;;;9.95;8.98;;;24.40;65.50;;;;;;4617744;56;22204;-38
2023/06/15 07:43:55;;;;;;;9.60;8.60;;;24.40;65.60;;;;;;4630770;56;21098;-38
2023/06/15 07:48:56;;;;;;;12.30;9.38;;;24.40;65.60;;;;;;4667532;56;21097;-38
2023/06/15 07:53:57;;;;;;;10.57;9.20;;;24.40;65.60;;;;;;4746472;56;21036;-38
2023/06/15 07:58:58;;;;;;;11.02;9.75;;;24.40;65.60;;;;;;4628459;56;21064;-37
2023/06/15 08:04:00;;;;;;;12.43;9.43;;;24.40;65.60;;;;;;4615310;60;21029;-38
2023/06/15 08:09:01;;;;;;;11.20;9.57;;;24.40;65.60;;;;;;4634736;56;21539;-39
2023/06/15 08:14:02;;;;;;;12.13;10.00;;;24.40;65.60;;;;;;4684504;56;21527;-38
2023/06/15 08:19:03;;;;;;;12.20;10.75;;;24.40;65.60;;;;;;4629543;55;21053;-39
2023/06/15 08:24:04;;;;;;;12.30;11.10;;;24.40;65.80;;;;;;4664796;55;21025;-39
2023/06/15 08:29:05;;;;;;;13.20;11.20;;;24.40;65.60;;;;;;4615285;60;21106;-38
2023/06/15 08:34:07;;;;;;;14.05;11.75;;;24.40;65.60;;;;;;4615547;56;21515;-38
2023/06/15 08:39:08;;;;;;;15.88;12.82;;;24.40;65.60;;;;;;4636300;56;21105;-33
2023/06/15 08:44:10;;;;;;;13.80;11.20;;;24.50;65.80;;;;;;4655868;56;22270;-36
2023/06/15 08:49:12;;;;;;;17.37;13.05;;;24.60;66.00;;;;;;4618843;56;21499;-38
2023/06/15 08:54:13;;;;;;;15.00;12.75;;;24.60;66.10;;;;;;4644081;56;21069;-37
2023/06/15 08:59:14;;;;;;;14.85;13.05;;;24.60;65.90;;;;;;4613928;55;21511;-35
2023/06/15 09:04:17;;;;;;;18.98;13.60;;;24.70;66.20;;;;;;4659971;55;21531;-34
2023/06/15 09:09:18;;;;;;;17.45;13.80;;;24.70;66.20;;;;;;4649617;56;21033;-38
2023/06/15 09:14:19;;;;;;;17.00;13.57;;;24.80;66.40;;;;;;4646238;55;21504;-35
2023/06/15 09:19:20;;;;;;;17.58;14.73;;;24.70;66.30;;;;;;4633066;55;21096;-35
2023/06/15 09:24:24;;;;;;;16.65;13.50;;;24.80;66.50;;;;;;4623466;56;21077;-35
2023/06/15 09:29:24;;;;;;;18.77;14.15;;;24.80;66.70;;;;;;4613276;60;21957;-36
2023/06/15 09:34:25;;;;;;;17.17;14.13;;;24.80;66.90;;;;;;4613823;59;21017;-37
2023/06/15 09:39:26;;;;;;;15.93;13.70;;;24.80;66.90;;;;;;4613931;59;21085;-37
2023/06/15 09:44:28;;;;;;;19.92;14.95;;;24.90;67.00;;;;;;4612308;59;21053;-39
2023/06/15 09:49:31;;;;;;;19.80;14.52;;;24.80;66.90;;;;;;4618010;56;21057;-36
2023/06/15 09:54:32;;;;;;;19.75;15.38;;;24.90;67.00;;;;;;4613835;60;21540;-34
2023/06/15 09:59:32;;;;;;;18.12;14.87;;;24.90;67.20;;;;;;4684883;55;20994;-38
2023/06/15 10:04:36;;;;;;;19.98;15.40;;;24.90;67.20;;;;;;4614179;59;21156;-37
2023/06/15 10:09:46;;;;;;;18.65;15.35;;;24.90;67.20;;;;;;4635902;56;21638;-35
2023/06/15 10:15:08;;;;;;;17.52;14.73;;;24.80;67.20;;;;;;4622579;56;21021;-35
2023/06/15 10:20:16;;;;;;;21.42;16.30;;;24.80;67.30;;;;;;4615664;56;21040;-39
2023/06/15 10:25:19;;;;;;;20.85;15.35;;;24.80;67.30;;;;;;4638294;56;21498;-38
2023/06/15 10:30:38;;;;;;;19.67;15.75;;;24.80;67.30;;;;;;4613834;60;21583;-33
2023/06/15 10:35:59;;;;;;;20.45;16.17;;;24.80;67.30;;;;;;4655778;56;20989;-40
2023/06/15 10:41:01;;;;;;;21.67;16.27;;;24.70;67.20;;;;;;4641667;56;21543;-38
2023/06/15 10:46:02;;;;;;;19.65;15.73;;;24.70;67.20;;;;;;4651746;56;21025;-40
2023/06/15 10:51:08;;;;;;;18.65;16.17;;;24.70;67.20;;;;;;4613746;59;21587;-38
2023/06/15 10:56:20;;;;;;;20.12;17.08;;;24.70;67.20;;;;;;4638960;56;21037;-35
2023/06/15 11:01:32;;;;;;;21.80;17.23;;;24.80;66.90;;;;;;4613514;60;21025;-35
2023/06/15 11:06:35;;;;;;;22.23;16.40;;;24.80;67.10;;;;;;4613521;60;21479;-38
2023/06/15 11:11:38;;;;;;;19.58;16.75;;;24.80;67.10;;;;;;4664672;56;21534;-35
2023/06/15 11:16:40;;;;;;;20.02;16.65;;;24.90;67.00;;;;;;4636961;56;20985;-38
2023/06/15 11:22:42;;;;;;;20.80;17.55;;;24.90;67.10;;;;;;4624897;55;21479;-38
2023/06/15 11:27:43;;;;;;;21.67;17.95;;;24.90;67.20;;;;;;4643087;56;21610;-37
2023/06/15 11:32:45;;;;;;;25.30;17.92;;;24.90;67.30;;;;;;4621909;56;21587;-37
2023/06/15 11:37:46;;;;;;;21.50;17.87;;;25.00;67.40;;;;;;4613320;59;21468;-35
2023/06/15 11:42:47;;;;;;;21.52;17.83;;;24.90;67.60;;;;;;4611845;59;21053;-36
2023/06/15 11:47:48;;;;;;;23.08;18.92;;;25.00;68.50;;;;;;4638084;56;21479;-38
2023/06/15 11:52:49;;;;;;;23.02;18.42;;;25.00;67.70;;;;;;4612667;59;21033;-39
2023/06/15 11:57:50;;;;;;;24.17;18.15;;;25.00;67.90;;;;;;4639187;55;21547;-36
2023/06/15 12:02:51;;;;;;;23.65;19.35;;;25.00;67.90;;;;;;4629371;56;21567;-36
2023/06/15 12:07:52;;;;;;;22.90;18.85;;;25.00;68.00;;;;;;4637155;56;21073;-33
2023/06/15 12:12:57;;;;;;;25.35;21.00;;;25.00;68.00;;;;;;4642963;56;21650;-39
2023/06/15 12:17:59;;;;;;;20.48;18.20;;;24.90;67.80;;;;;;4744948;56;22159;-34
2023/06/15 12:23:00;;;;;;;23.90;18.73;;;24.90;68.00;;;;;;4637992;55;21752;-40
2023/06/15 12:28:12;;;;;;;20.83;17.80;;;24.80;68.20;;;;;;4613777;55;21033;-35
2023/06/15 12:33:33;;;;;;;23.17;18.60;;;24.80;68.30;;;;;;4666723;56;21036;-40
2023/06/15 12:38:37;;;;;;;21.30;18.70;;;24.80;68.30;;;;;;4614595;60;21527;-37
2023/06/15 12:43:39;;;;;;;22.58;19.48;;;24.70;68.30;;;;;;4631985;56;21045;-37
2023/06/15 12:48:39;;;;;;;24.63;19.58;;;24.70;68.20;;;;;;4615200;60;21071;-37
2023/06/15 12:53:40;;;;;;;20.50;18.30;;;24.70;68.30;;;;;;4618875;55;21053;-39
2023/06/15 12:58:41;;;;;;;23.27;18.70;;;24.70;68.20;;;;;;4674270;55;21025;-38
2023/06/15 13:03:42;;;;;;;21.37;18.42;;;24.70;68.30;;;;;;4614975;60;21021;-38
2023/06/15 13:08:44;;;;;;;22.10;18.75;;;24.60;68.80;;;;;;4615382;60;21050;-40
2023/06/15 13:13:45;;;;;;;21.33;18.02;;;24.70;68.20;;;;;;4614617;60;21677;-38
2023/06/15 13:18:46;;;;;;;22.87;18.62;;;24.70;68.20;;;;;;4681134;55;21818;-38
2023/06/15 13:23:47;;;;;;;22.73;18.40;;;24.70;68.20;;;;;;4680823;55;21371;-35
2023/06/15 13:28:48;;;;;;;20.48;18.23;;;24.60;68.10;;;;;;4615515;59;21524;-38
2023/06/15 13:33:49;;;;;;;22.42;18.45;;;24.60;68.00;;;;;;4666198;55;21017;-38
2023/06/15 13:38:50;;;;;;;22.85;18.98;;;24.60;68.00;;;;;;4666687;55;21045;-39
2023/06/15 13:43:52;;;;;;;20.37;17.90;;;24.60;68.00;;;;;;4633101;55;21049;-39
2023/06/15 13:48:54;;;;;;;20.80;18.60;;;24.60;68.00;;;;;;4670179;56;22401;-36
2023/06/15 13:53:55;;;;;;;20.70;18.45;;;24.60;67.90;;;;;;4614363;60;21547;-37
2023/06/15 13:58:57;;;;;;;20.23;18.08;;;24.60;67.90;;;;;;4632307;55;21057;-39
2023/06/15 14:03:58;;;;;;;22.25;18.85;;;24.60;67.90;;;;;;4615588;56;21465;-38
2023/06/15 14:08:59;;;;;;;22.35;18.50;;;24.60;67.90;;;;;;4615541;60;21507;-38
2023/06/15 14:13:59;;;;;;;22.50;19.87;;;24.60;67.90;;;;;;4718422;55;21057;-37
2023/06/15 14:19:00;;;;;;;23.48;19.95;;;24.60;67.90;;;;;;4713971;55;21120;-38
2023/06/15 14:24:03;;;;;;;21.83;18.83;;;24.60;67.90;;;;;;4651505;55;21108;-39
2023/06/15 14:29:04;;;;;;;21.23;18.40;;;24.60;67.90;;;;;;4624191;55;21519;-39
2023/06/15 14:34:05;;;;;;;22.08;19.15;;;24.60;67.80;;;;;;4615049;55;21609;-38
2023/06/15 14:39:07;;;;;;;20.92;18.40;;;24.60;67.70;;;;;;4859614;55;21145;-38
2023/06/15 14:44:10;;;;;;;20.73;17.73;;;24.60;67.70;;;;;;4614769;60;21564;-36
2023/06/15 14:49:12;;;;;;;23.10;19.35;;;24.60;67.70;;;;;;4627161;56;21745;-37
2023/06/15 14:54:12;;;;;;;23.15;19.05;;;24.60;67.70;;;;;;4666153;55;21531;-35
2023/06/15 14:59:13;;;;;;;21.55;18.45;;;24.50;67.60;;;;;;4615320;55;21013;-37
2023/06/15 15:04:14;;;;;;;21.67;19.20;;;24.60;67.70;;;;;;4658790;55;21045;-37
2023/06/15 15:09:15;;;;;;;21.37;18.58;;;24.60;67.60;;;;;;4720175;56;21009;-41
2023/06/15 15:14:16;;;;;;;22.62;18.75;;;24.60;67.60;;;;;;4769284;55;21507;-41
2023/06/15 15:19:17;;;;;;;25.25;19.83;;;24.50;67.60;;;;;;4614941;60;21009;-38
2023/06/15 15:24:17;;;;;;;21.52;18.05;;;24.50;67.60;;;;;;4806621;55;21105;-37
2023/06/15 15:29:18;;;;;;;24.10;19.05;;;24.60;67.70;;;;;;4615456;59;21033;-37
2023/06/15 15:34:19;;;;;;;21.65;19.33;;;24.50;67.50;;;;;;4634164;55;21049;-39
2023/06/15 15:39:20;;;;;;;21.30;18.23;;;24.50;67.50;;;;;;4784595;55;21024;-38
2023/06/15 15:44:22;;;;;;;22.40;19.05;;;24.50;67.50;;;;;;4624989;56;21065;-42
2023/06/15 15:49:23;;;;;;;20.48;17.95;;;24.50;67.50;;;;;;4615798;60;21108;-40
2023/06/15 15:54:23;;;;;;;20.70;17.92;;;24.50;67.40;;;;;;4699465;55;21029;-37
2023/06/15 15:59:24;;;;;;;20.40;17.58;;;24.50;67.40;;;;;;4642290;55;21203;-34
2023/06/15 16:04:25;;;;;;;22.33;18.70;;;24.50;67.40;;;;;;4625905;55;21029;-39
2023/06/15 16:09:26;;;;;;;20.67;18.48;;;24.50;67.40;;;;;;4615313;55;21093;-39
2023/06/15 16:14:27;;;;;;;19.70;17.30;;;24.50;67.40;;;;;;4615666;59;21551;-37
2023/06/15 16:19:28;;;;;;;20.88;18.67;;;24.50;67.30;;;;;;4615524;60;21575;-37
2023/06/15 16:24:29;;;;;;;21.20;17.37;;;24.50;67.30;;;;;;4696938;55;21080;-38
2023/06/15 16:29:30;;;;;;;20.88;18.30;;;24.50;67.30;;;;;;4619587;55;21163;-38
2023/06/15 16:34:31;;;;;;;22.45;17.83;;;24.50;67.30;;;;;;4652111;55;20985;-36
2023/06/15 16:39:46;;;;;;;23.83;18.70;;;24.50;67.30;;;;;;4615221;59;21117;-37
2023/06/15 16:44:48;;;;;;;21.90;18.73;;;24.50;67.30;;;;;;4615887;56;21093;-36
2023/06/15 16:49:50;;;;;;;24.95;18.85;;;24.50;67.30;;;;;;4677272;56;21040;-38
2023/06/15 16:54:51;;;;;;;21.87;18.77;;;24.50;67.20;;;;;;4633530;55;21037;-39
2023/06/15 16:59:52;;;;;;;25.27;19.58;;;24.50;67.30;;;;;;4629139;56;21013;-39
2023/06/15 17:04:53;;;;;;;25.90;20.25;;;24.50;67.30;;;;;;4646832;56;21681;-39
2023/06/15 17:09:54;;;;;;;23.00;20.00;;;24.50;67.90;;;;;;4676250;55;21133;-39
2023/06/15 17:14:55;;;;;;;24.33;19.87;;;24.50;67.20;;;;;;4615459;60;21499;-37
2023/06/15 17:19:56;;;;;;;25.95;20.65;;;24.50;67.20;;;;;;4634030;55;21033;-39
2023/06/15 17:24:59;;;;;;;22.05;18.62;;;24.50;67.20;;;;;;4626944;55;21054;-37
2023/06/15 17:30:00;;;;;;;23.77;19.40;;;24.50;67.20;;;;;;4630363;55;21564;-37
2023/06/15 17:35:01;;;;;;;22.75;18.33;;;24.50;67.20;;;;;;4669265;55;21136;-37
2023/06/15 17:40:03;;;;;;;23.75;19.42;;;24.50;67.20;;;;;;4635391;56;21536;-38
2023/06/15 17:45:07;;;;;;;25.88;19.90;;;24.50;67.20;;;;;;4614985;60;21562;-37
2023/06/15 17:50:09;;;;;;;24.12;19.10;;;24.50;67.20;;;;;;4620634;56;21523;-38
2023/06/15 17:55:10;;;;;;;21.75;18.27;;;24.50;67.20;;;;;;4635478;56;21507;-38
2023/06/15 18:00:12;;;;;;;21.23;18.35;;;24.50;67.20;;;;;;4672660;55;21579;-37
2023/06/15 18:05:13;;;;;;;22.35;19.05;;;24.50;67.20;;;;;;4694258;56;21499;-36
2023/06/15 18:10:14;;;;;;;23.48;19.35;;;24.50;67.10;;;;;;4665034;55;21108;-38
2023/06/15 18:15:15;;;;;;;24.30;18.90;;;24.50;67.20;;;;;;4624086;56;21021;-36
2023/06/15 18:20:16;;;;;;;24.92;19.83;;;24.50;67.10;;;;;;4615569;59;21077;-38
2023/06/15 18:25:17;;;;;;;23.20;19.23;;;24.50;67.10;;;;;;4617915;56;21104;-37
2023/06/15 18:30:18;;;;;;;25.42;20.67;;;24.50;67.20;;;;;;4626201;55;21048;-38
2023/06/15 18:35:22;;;;;;;23.27;20.25;;;24.50;67.20;;;;;;4615904;59;21018;-36
2023/06/15 18:40:22;;;;;;;23.00;18.85;;;24.50;67.10;;;;;;4692353;56;21065;-35
2023/06/15 18:45:23;;;;;;;23.25;19.62;;;24.50;67.10;;;;;;4645884;55;21078;-39
2023/06/15 18:50:25;;;;;;;24.85;20.37;;;24.40;67.10;;;;;;4619995;55;21116;-40
2023/06/15 18:55:26;;;;;;;23.73;19.75;;;24.50;67.10;;;;;;4710174;55;21539;-36
2023/06/15 19:00:27;;;;;;;23.33;20.60;;;24.50;67.10;;;;;;4769668;55;21575;-37
2023/06/15 19:05:28;;;;;;;23.35;20.15;;;24.40;67.10;;;;;;4807065;55;21051;-37
2023/06/15 19:10:31;;;;;;;23.25;19.25;;;24.40;67.10;;;;;;4615769;56;21553;-39
2023/06/15 19:15:33;;;;;;;23.40;19.80;;;24.40;67.10;;;;;;4674401;55;21604;-41
2023/06/15 19:20:34;;;;;;;24.55;19.92;;;24.40;67.10;;;;;;4615437;60;21037;-39
2023/06/15 19:25:35;;;;;;;22.00;19.50;;;24.40;67.20;;;;;;4704918;55;21506;-37
2023/06/15 19:30:36;;;;;;;23.70;19.60;;;24.40;67.10;;;;;;4615302;58;21104;-38
2023/06/15 19:35:40;;;;;;;23.55;20.55;;;24.40;67.10;;;;;;4639697;55;21017;-38
2023/06/15 19:40:41;;;;;;;23.42;19.80;;;24.40;67.10;;;;;;4627831;56;21616;-37
2023/06/15 19:45:43;;;;;;;22.37;19.10;;;24.40;67.10;;;;;;4633012;55;21014;-39
2023/06/15 19:50:44;;;;;;;23.95;19.83;;;24.40;67.10;;;;;;4615197;60;21641;-40
2023/06/15 19:55:45;;;;;;;23.65;20.00;;;24.40;67.10;;;;;;4624626;56;21037;-38
2023/06/15 20:00:46;;;;;;;23.75;19.27;;;24.40;67.20;;;;;;4639877;55;21575;-38
2023/06/15 20:05:47;;;;;;;22.23;19.37;;;24.40;67.10;;;;;;4615703;60;21021;-40
2023/06/15 20:10:48;;;;;;;21.25;18.98;;;24.40;67.10;;;;;;4615621;60;21611;-40
2023/06/15 20:15:49;;;;;;;20.85;18.65;;;24.40;67.10;;;;;;4825389;55;21065;-39
2023/06/15 20:20:49;;;;;;;21.52;19.23;;;24.40;67.10;;;;;;4633013;55;21563;-39
2023/06/15 20:25:52;;;;;;;21.70;18.27;;;24.40;67.10;;;;;;4648996;55;21051;-37
2023/06/15 20:30:52;;;;;;;20.10;17.87;;;24.40;67.20;;;;;;4615439;60;22078;-39
2023/06/15 20:35:53;;;;;;;21.52;18.80;;;24.40;67.10;;;;;;4715034;55;21013;-38
2023/06/15 20:40:54;;;;;;;21.58;18.92;;;24.40;67.10;;;;;;4616706;55;21113;-34
2023/06/15 20:46:00;;;;;;;21.48;19.17;;;24.40;67.10;;;;;;4653934;55;21017;-37
2023/06/15 20:51:05;;;;;;;20.90;18.60;;;24.40;67.20;;;;;;4625580;56;21106;-40
2023/06/15 20:56:06;;;;;;;21.98;18.98;;;24.40;67.10;;;;;;4619046;56;21531;-39
2023/06/15 21:01:07;;;;;;;21.30;19.00;;;24.40;67.10;;;;;;4615218;60;21017;-39
2023/06/15 21:06:07;;;;;;;19.95;17.85;;;24.40;67.10;;;;;;4630373;55;21050;-37
2023/06/15 21:11:08;;;;;;;21.40;18.58;;;24.40;67.10;;;;;;4627357;55;21122;-37
2023/06/15 21:16:09;;;;;;;19.75;17.65;;;24.40;67.80;;;;;;4615157;60;21013;-39
2023/06/15 21:21:10;;;;;;;18.80;16.65;;;24.40;67.80;;;;;;4641337;55;21033;-38
2023/06/15 21:26:11;;;;;;;18.25;16.35;;;24.40;67.10;;;;;;4615754;59;21583;-37
2023/06/15 21:31:12;;;;;;;20.33;18.08;;;24.40;67.10;;;;;;4618601;55;21029;-39
2023/06/15 21:36:13;;;;;;;19.35;17.33;;;24.40;67.10;;;;;;4621003;55;21014;-38
2023/06/15 21:41:13;;;;;;;18.27;16.27;;;24.40;67.10;;;;;;4618525;55;21519;-39
2023/06/15 21:46:14;;;;;;;19.12;16.20;;;24.40;67.10;;;;;;4615871;59;21021;-39
2023/06/15 21:51:15;;;;;;;18.92;17.00;;;24.40;67.00;;;;;;4771434;55;21057;-37
2023/06/15 21:56:16;;;;;;;17.87;15.98;;;24.40;67.00;;;;;;4629532;56;21148;-37
2023/06/15 22:01:17;;;;;;;17.80;15.95;;;24.40;67.00;;;;;;4616004;55;21591;-38
2023/06/15 22:06:19;;;;;;;17.52;15.65;;;24.30;66.90;;;;;;4615761;60;21096;-34
2023/06/15 22:11:20;;;;;;;18.23;16.08;;;24.30;66.90;;;;;;4665797;55;21563;-38
2023/06/15 22:16:21;;;;;;;17.52;15.23;;;24.40;67.00;;;;;;4710864;55;21088;-39
2023/06/15 22:21:24;;;;;;;16.92;15.18;;;24.40;67.10;;;;;;4713850;55;21097;-37
2023/06/15 22:26:25;;;;;;;16.62;14.93;;;24.30;66.90;;;;;;4694761;56;21009;-38
2023/06/15 22:31:26;;;;;;;17.10;15.30;;;24.30;66.80;;;;;;4745524;55;21503;-37
2023/06/15 22:36:28;;;;;;;16.75;15.05;;;24.30;66.90;;;;;;4616305;55;21029;-39
2023/06/15 22:41:29;;;;;;;17.45;15.65;;;24.30;66.90;;;;;;4615273;59;21097;-36
2023/06/15 22:46:29;;;;;;;16.83;14.75;;;24.30;66.80;;;;;;4615846;60;21025;-38
2023/06/15 22:51:31;;;;;;;16.92;15.15;;;24.30;66.80;;;;;;4616643;55;21037;-38
2023/06/15 22:56:32;;;;;;;16.27;14.60;;;24.30;66.80;;;;;;4688544;55;21025;-38
2023/06/15 23:01:33;;;;;;;15.10;13.57;;;24.30;66.80;;;;;;4676332;56;21560;-40
2023/06/15 23:06:41;;;;;;;15.60;13.95;;;24.30;66.80;;;;;;4723975;55;21422;-38
2023/06/15 23:11:42;;;;;;;15.20;13.60;;;24.30;66.70;;;;;;4761470;55;21542;-37
2023/06/15 23:16:43;;;;;;;15.00;13.40;;;24.30;66.70;;;;;;4646161;56;21092;-39
2023/06/15 23:21:48;;;;;;;15.52;13.93;;;24.30;66.70;;;;;;4615974;55;21148;-38
2023/06/15 23:26:52;;;;;;;15.65;14.00;;;24.30;66.70;;;;;;4663048;55;21405;-38
2023/06/15 23:31:53;;;;;;;14.63;13.07;;;24.30;66.70;;;;;;4637912;56;21603;-38
2023/06/15 23:36:54;;;;;;;15.27;13.77;;;24.30;66.70;;;;;;4628075;55;21018;-38
2023/06/15 23:41:55;;;;;;;14.20;12.80;;;24.30;66.50;;;;;;4616149;55;21184;-40
2023/06/15 23:46:56;;;;;;;14.52;12.93;;;24.30;66.70;;;;;;4630178;55;21484;-40
2023/06/15 23:51:57;;;;;;;14.13;12.65;;;24.30;66.70;;;;;;4618530;55;21037;-36
2023/06/15 23:56:57;;;;;;;14.77;13.27;;;24.30;66.70;;;;;;4792155;55;21037;-40
